Time;durP1;ratioP1;P1;durP2;ratioP2;P2;SDS_P1;SDS_P2;PMS_P1;PMS_P2;Temp;Humidity;BMP_temperature;BMP_pressure;BME280_temperature;BME280_humidity;BME280_pressure;Samples;Min_cycle;Max_cycle;Signal;HPM_P1;HPM_P2
2023/04/06 00:02:05;;;;;;;7.03;1.98;;;;;;;;;;4951025;28;20038;-77
2023/04/06 00:04:31;;;;;;;7.50;2.13;;;;;;;;;;4954632;28;20041;-77
2023/04/06 00:06:58;;;;;;;6.72;2.05;;;;;;;;;;4947905;28;20038;-77
2023/04/06 00:09:26;;;;;;;8.40;2.67;;;;;;;;;;4952731;28;20031;-77
2023/04/06 00:11:53;;;;;;;9.77;2.58;;;;;;;;;;4946212;28;20034;-77
2023/04/06 00:14:21;;;;;;;6.65;2.20;;;;;;;;;;4951939;28;20030;-77
2023/04/06 00:16:48;;;;;;;9.10;2.53;;;;;;;;;;4947791;28;20329;-77
2023/04/06 00:19:15;;;;;;;9.77;2.70;;;;;;;;;;4951472;28;20094;-77
2023/04/06 00:21:43;;;;;;;7.65;2.25;;;;;;;;;;4954932;28;20090;-77
2023/04/06 00:24:12;;;;;;;10.48;2.20;;;;;;;;;;4948929;28;20461;-78
2023/04/06 00:26:39;;;;;;;9.30;2.45;;;;;;;;;;4949834;28;20031;-76
2023/04/06 00:29:07;;;;;;;7.97;2.03;;;;;;;;;;4948447;28;20755;-76
2023/04/06 00:31:34;;;;;;;8.77;2.38;;;;;;;;;;4953440;28;20037;-76
2023/04/06 00:34:02;;;;;;;7.80;2.20;;;;;;;;;;4946103;28;20034;-76
2023/04/06 00:36:28;;;;;;;9.00;2.30;;;;;;;;;;4953089;28;20045;-78
2023/04/06 00:38:55;;;;;;;9.30;2.60;;;;;;;;;;4930533;28;20026;-79
2023/04/06 00:41:23;;;;;;;7.80;1.77;;;;;;;;;;4948838;28;20498;-78
2023/04/06 00:43:50;;;;;;;5.95;1.70;;;;;;;;;;4934343;28;20148;-78
2023/04/06 00:46:18;;;;;;;7.90;2.10;;;;;;;;;;4951107;28;20042;-78
2023/04/06 00:48:45;;;;;;;8.50;2.00;;;;;;;;;;4950377;28;20097;-78
2023/04/06 00:51:13;;;;;;;5.68;1.58;;;;;;;;;;4951615;28;20034;-78
2023/04/06 00:53:39;;;;;;;7.03;1.98;;;;;;;;;;4951291;28;20153;-78
2023/04/06 00:56:09;;;;;;;7.63;1.60;;;;;;;;;;4926414;28;22383;-78
2023/04/06 00:58:37;;;;;;;7.15;1.65;;;;;;;;;;4939035;28;20592;-79
2023/04/06 01:01:05;;;;;;;7.03;1.80;;;;;;;;;;4948375;28;20062;-77
2023/04/06 01:03:33;;;;;;;7.03;1.90;;;;;;;;;;4947155;28;20026;-77
2023/04/06 01:06:00;;;;;;;8.10;2.50;;;;;;;;;;4928058;28;20261;-77
2023/04/06 01:08:28;;;;;;;6.88;1.90;;;;;;;;;;4950117;28;20104;-77
2023/04/06 01:10:55;;;;;;;7.78;2.03;;;;;;;;;;4946369;28;20832;-77
2023/04/06 01:13:23;;;;;;;6.28;1.98;;;;;;;;;;4949147;28;20034;-77
2023/04/06 01:15:50;;;;;;;7.65;2.13;;;;;;;;;;4946876;28;20061;-77
2023/04/06 01:18:18;;;;;;;7.85;2.45;;;;;;;;;;4949736;28;20037;-77
2023/04/06 01:20:45;;;;;;;10.00;2.80;;;;;;;;;;4940984;28;20031;-77
2023/04/06 01:23:13;;;;;;;8.65;2.90;;;;;;;;;;4952818;28;20038;-77
2023/04/06 01:25:40;;;;;;;7.70;2.33;;;;;;;;;;4937019;28;20577;-76
2023/04/06 01:28:08;;;;;;;8.60;3.03;;;;;;;;;;4948368;28;20034;-78
2023/04/06 01:30:35;;;;;;;6.72;2.08;;;;;;;;;;4941109;28;20042;-78
2023/04/06 01:33:02;;;;;;;6.25;1.98;;;;;;;;;;4944690;28;20125;-77
2023/04/06 01:35:30;;;;;;;8.00;2.20;;;;;;;;;;4932914;28;20065;-78
2023/04/06 01:37:58;;;;;;;6.45;1.90;;;;;;;;;;4949689;28;21627;-78
2023/04/06 01:40:25;;;;;;;6.15;2.03;;;;;;;;;;4955929;28;20440;-78
2023/04/06 01:42:53;;;;;;;5.55;1.90;;;;;;;;;;4948507;28;20093;-78
2023/04/06 01:45:20;;;;;;;9.23;2.00;;;;;;;;;;4947784;28;20106;-78
2023/04/06 01:47:48;;;;;;;6.10;1.60;;;;;;;;;;4948382;28;20042;-77
2023/04/06 01:50:15;;;;;;;7.60;1.80;;;;;;;;;;4951583;28;20029;-78
2023/04/06 01:52:43;;;;;;;7.90;1.80;;;;;;;;;;4935432;28;20039;-78
2023/04/06 01:55:10;;;;;;;6.35;1.73;;;;;;;;;;4930647;28;20027;-78
2023/04/06 01:57:38;;;;;;;7.28;1.90;;;;;;;;;;4954551;28;20034;-78
2023/04/06 02:00:06;;;;;;;6.38;1.90;;;;;;;;;;4952728;28;20264;-79
2023/04/06 02:02:33;;;;;;;5.75;1.60;;;;;;;;;;4940931;28;20596;-78
2023/04/06 02:05:00;;;;;;;7.18;1.85;;;;;;;;;;4952326;28;20034;-78
2023/04/06 02:07:28;;;;;;;6.68;1.90;;;;;;;;;;4959571;28;20046;-78
2023/04/06 02:09:56;;;;;;;5.18;1.45;;;;;;;;;;4956158;28;20034;-78
2023/04/06 02:12:23;;;;;;;8.40;1.85;;;;;;;;;;4960710;28;20563;-78
2023/04/06 02:14:51;;;;;;;6.55;1.95;;;;;;;;;;4952591;28;20038;-78
2023/04/06 02:17:19;;;;;;;5.07;1.38;;;;;;;;;;4945607;28;20060;-78
2023/04/06 02:19:46;;;;;;;6.63;1.67;;;;;;;;;;4955432;28;20065;-78
2023/04/06 02:22:14;;;;;;;6.00;1.90;;;;;;;;;;4955716;28;20041;-78
2023/04/06 02:24:41;;;;;;;5.00;1.60;;;;;;;;;;4957317;28;20684;-78
2023/04/06 02:27:09;;;;;;;5.15;1.50;;;;;;;;;;4956481;28;20464;-78
2023/04/06 02:29:36;;;;;;;6.55;1.48;;;;;;;;;;4957776;28;20038;-78
2023/04/06 02:32:04;;;;;;;7.68;1.67;;;;;;;;;;4935617;28;20030;-78
2023/04/06 02:34:30;;;;;;;6.72;1.52;;;;;;;;;;4956818;28;20141;-76
2023/04/06 02:36:58;;;;;;;6.22;1.48;;;;;;;;;;4953694;28;20865;-77
2023/04/06 02:39:25;;;;;;;6.97;1.40;;;;;;;;;;4953537;28;20061;-77
2023/04/06 02:41:53;;;;;;;5.68;1.60;;;;;;;;;;4953671;28;20035;-77
2023/04/06 02:44:21;;;;;;;5.68;1.40;;;;;;;;;;4937958;28;20146;-77
2023/04/06 02:46:48;;;;;;;6.43;1.33;;;;;;;;;;4950980;28;20078;-77
2023/04/06 02:49:15;;;;;;;6.05;1.40;;;;;;;;;;4942785;28;20540;-77
2023/04/06 02:51:43;;;;;;;8.02;1.65;;;;;;;;;;4954554;28;20495;-77
2023/04/06 02:54:10;;;;;;;5.35;1.50;;;;;;;;;;4952100;28;20030;-77
2023/04/06 02:56:37;;;;;;;5.18;1.35;;;;;;;;;;4956409;28;20030;-77
2023/04/06 02:59:05;;;;;;;5.13;1.48;;;;;;;;;;4931439;28;20018;-77
2023/04/06 03:01:33;;;;;;;5.05;1.35;;;;;;;;;;4954516;28;20041;-77
2023/04/06 03:04:00;;;;;;;5.00;1.40;;;;;;;;;;4952932;28;20638;-77
2023/04/06 03:06:26;;;;;;;6.95;1.85;;;;;;;;;;4953641;28;20041;-77
2023/04/06 03:08:53;;;;;;;7.35;1.75;;;;;;;;;;4954078;28;20046;-77
2023/04/06 03:11:21;;;;;;;7.95;1.80;;;;;;;;;;4956777;28;20514;-77
2023/04/06 03:13:48;;;;;;;5.80;1.42;;;;;;;;;;4942112;28;20031;-77
2023/04/06 03:16:15;;;;;;;3.72;1.20;;;;;;;;;;4938988;28;20273;-77
2023/04/06 03:18:41;;;;;;;8.30;1.60;;;;;;;;;;4958424;28;20041;-77
2023/04/06 03:21:09;;;;;;;7.32;1.70;;;;;;;;;;4933886;28;20019;-77
2023/04/06 03:23:37;;;;;;;5.40;1.88;;;;;;;;;;4953641;28;20114;-77
2023/04/06 03:26:04;;;;;;;5.90;1.80;;;;;;;;;;4955744;28;20031;-77
2023/04/06 03:28:31;;;;;;;6.43;1.75;;;;;;;;;;4956586;28;20018;-77
2023/04/06 03:30:59;;;;;;;7.32;1.75;;;;;;;;;;4952546;28;20033;-77
2023/04/06 03:33:29;;;;;;;5.65;1.50;;;;;;;;;;4934852;28;20453;-77
2023/04/06 03:35:56;;;;;;;8.07;1.63;;;;;;;;;;4955868;28;20397;-77
2023/04/06 03:38:24;;;;;;;6.60;1.42;;;;;;;;;;4958152;28;20030;-77
2023/04/06 03:40:51;;;;;;;5.57;1.60;;;;;;;;;;4950640;28;20391;-77
2023/04/06 03:43:18;;;;;;;5.63;1.35;;;;;;;;;;4941491;28;20039;-77
2023/04/06 03:45:46;;;;;;;9.07;1.75;;;;;;;;;;4957069;28;20509;-78
2023/04/06 03:48:13;;;;;;;7.57;1.95;;;;;;;;;;4957258;28;20434;-77
2023/04/06 03:50:41;;;;;;;6.40;1.80;;;;;;;;;;4957948;28;20152;-78
2023/04/06 03:53:08;;;;;;;5.43;1.42;;;;;;;;;;4957046;28;20030;-78
2023/04/06 03:55:36;;;;;;;6.30;1.40;;;;;;;;;;4955520;28;20405;-78
2023/04/06 03:58:03;;;;;;;6.70;1.27;;;;;;;;;;4955683;28;20037;-77
2023/04/06 04:00:32;;;;;;;4.95;1.30;;;;;;;;;;4941788;28;20433;-77
2023/04/06 04:03:01;;;;;;;6.68;1.75;;;;;;;;;;4953135;28;20034;-78
2023/04/06 04:05:29;;;;;;;4.85;1.40;;;;;;;;;;4940516;28;20563;-77
2023/04/06 04:07:56;;;;;;;5.28;1.52;;;;;;;;;;4955141;28;20413;-77
2023/04/06 04:10:22;;;;;;;5.60;1.63;;;;;;;;;;4954239;28;20849;-77
2023/04/06 04:12:50;;;;;;;7.00;2.03;;;;;;;;;;4948971;28;21031;-77
2023/04/06 04:15:17;;;;;;;6.80;1.65;;;;;;;;;;4940158;28;20548;-77
2023/04/06 04:17:46;;;;;;;8.25;1.50;;;;;;;;;;4951282;28;21295;-77
2023/04/06 04:20:13;;;;;;;5.75;1.40;;;;;;;;;;4951654;28;20062;-77
2023/04/06 04:22:41;;;;;;;5.20;1.73;;;;;;;;;;4951102;28;20676;-77
2023/04/06 04:25:08;;;;;;;5.43;1.60;;;;;;;;;;4953557;28;20108;-76
2023/04/06 04:27:36;;;;;;;7.00;1.73;;;;;;;;;;4939326;28;20662;-77
2023/04/06 04:30:04;;;;;;;6.13;1.42;;;;;;;;;;4951130;28;20438;-77
2023/04/06 04:32:31;;;;;;;3.97;1.30;;;;;;;;;;4956971;28;20033;-78
2023/04/06 04:34:59;;;;;;;7.47;1.52;;;;;;;;;;4952381;28;20062;-78
2023/04/06 04:37:26;;;;;;;5.90;1.33;;;;;;;;;;4957646;28;20043;-78
2023/04/06 04:39:52;;;;;;;6.57;1.50;;;;;;;;;;4951619;28;20089;-78
2023/04/06 04:42:19;;;;;;;6.03;1.40;;;;;;;;;;4936040;28;20062;-78
2023/04/06 04:44:47;;;;;;;5.80;1.20;;;;;;;;;;4954353;28;20495;-79
2023/04/06 04:47:14;;;;;;;4.68;1.10;;;;;;;;;;4952659;28;20145;-78
2023/04/06 04:49:42;;;;;;;4.35;1.30;;;;;;;;;;4942286;28;20034;-78
2023/04/06 04:52:09;;;;;;;5.13;1.83;;;;;;;;;;4952167;28;20354;-78
2023/04/06 04:54:37;;;;;;;6.10;1.50;;;;;;;;;;4938630;28;20267;-77
2023/04/06 04:57:04;;;;;;;6.43;1.60;;;;;;;;;;4948606;28;20191;-77
2023/04/06 04:59:32;;;;;;;7.15;1.60;;;;;;;;;;4934462;28;20019;-78
2023/04/06 05:02:00;;;;;;;4.32;1.33;;;;;;;;;;4934816;28;20040;-78
2023/04/06 05:04:27;;;;;;;5.63;1.42;;;;;;;;;;4956846;28;20437;-76
2023/04/06 05:07:07;;;;;;;5.82;1.40;;;;;;;;;;4950966;28;20719;-78
2023/04/06 05:09:35;;;;;;;5.72;1.60;;;;;;;;;;4955377;28;20101;-77
2023/04/06 05:12:02;;;;;;;5.85;1.60;;;;;;;;;;4953335;28;20054;-77
2023/04/06 05:14:30;;;;;;;7.55;1.95;;;;;;;;;;4955928;28;20027;-77
2023/04/06 05:16:57;;;;;;;6.13;1.50;;;;;;;;;;4936099;28;20524;-78
2023/04/06 05:19:25;;;;;;;5.32;1.50;;;;;;;;;;4954243;28;20339;-78
2023/04/06 05:21:51;;;;;;;6.18;1.80;;;;;;;;;;4951803;28;20058;-77
2023/04/06 05:24:19;;;;;;;4.90;1.50;;;;;;;;;;4954312;28;20176;-78
2023/04/06 05:26:48;;;;;;;6.25;1.15;;;;;;;;;;4935704;28;20390;-77
2023/04/06 05:29:17;;;;;;;5.18;1.40;;;;;;;;;;4950857;28;20041;-77
2023/04/06 05:31:45;;;;;;;7.25;1.48;;;;;;;;;;4955804;28;20037;-79
2023/04/06 05:34:14;;;;;;;6.22;1.65;;;;;;;;;;4955023;28;20157;-77
2023/04/06 05:36:42;;;;;;;5.30;1.30;;;;;;;;;;4951487;28;20302;-77
2023/04/06 05:39:09;;;;;;;6.70;1.40;;;;;;;;;;4938403;28;20660;-77
2023/04/06 05:41:37;;;;;;;4.10;1.20;;;;;;;;;;4934490;28;20065;-77
2023/04/06 05:44:03;;;;;;;6.93;1.33;;;;;;;;;;4938650;28;20464;-78
2023/04/06 05:46:30;;;;;;;7.18;1.70;;;;;;;;;;4952067;28;20033;-76
2023/04/06 05:48:58;;;;;;;5.82;1.40;;;;;;;;;;4950022;28;20025;-77
2023/04/06 05:51:26;;;;;;;4.35;1.38;;;;;;;;;;4953854;28;20517;-76
2023/04/06 05:53:54;;;;;;;7.90;1.67;;;;;;;;;;4934655;28;20124;-79
2023/04/06 05:56:21;;;;;;;7.28;1.50;;;;;;;;;;4951738;28;20395;-78
2023/04/06 05:58:48;;;;;;;8.20;1.35;;;;;;;;;;4953243;28;20076;-78
2023/04/06 06:01:16;;;;;;;7.80;1.55;;;;;;;;;;4956359;28;20124;-80
2023/04/06 06:03:44;;;;;;;7.70;1.60;;;;;;;;;;4952237;28;20026;-78
2023/04/06 06:06:11;;;;;;;5.93;1.63;;;;;;;;;;4952255;28;20484;-77
2023/04/06 06:08:39;;;;;;;18.27;2.30;;;;;;;;;;4952881;28;20202;-79
2023/04/06 06:11:06;;;;;;;9.10;1.63;;;;;;;;;;4951660;28;21133;-78
2023/04/06 06:13:33;;;;;;;5.97;1.30;;;;;;;;;;4960132;28;20476;-77
2023/04/06 06:16:04;;;;;;;5.07;1.30;;;;;;;;;;4950068;28;20338;-77
2023/04/06 06:18:32;;;;;;;6.93;1.45;;;;;;;;;;4952475;28;20037;-78
2023/04/06 06:21:00;;;;;;;4.80;1.20;;;;;;;;;;4952390;28;20031;-77
2023/04/06 06:23:27;;;;;;;4.53;1.23;;;;;;;;;;4952364;28;20051;-77
2023/04/06 06:25:57;;;;;;;4.30;1.23;;;;;;;;;;4949534;28;20230;-79
2023/04/06 06:28:25;;;;;;;4.43;1.20;;;;;;;;;;4951313;28;20062;-77
2023/04/06 06:30:53;;;;;;;6.53;1.30;;;;;;;;;;4951811;28;20040;-77
2023/04/06 06:33:20;;;;;;;5.63;1.35;;;;;;;;;;4953801;28;20034;-77
2023/04/06 06:35:47;;;;;;;7.03;1.63;;;;;;;;;;4949196;28;20507;-78
2023/04/06 06:38:14;;;;;;;7.07;1.98;;;;;;;;;;4952170;28;20058;-78
2023/04/06 06:40:42;;;;;;;8.05;2.20;;;;;;;;;;4937222;28;20054;-78
2023/04/06 06:43:09;;;;;;;7.13;2.20;;;;;;;;;;4954351;28;20334;-77
2023/04/06 06:45:37;;;;;;;7.78;2.35;;;;;;;;;;4935205;28;20633;-78
2023/04/06 06:48:05;;;;;;;8.20;2.25;;;;;;;;;;4951696;28;20042;-78
2023/04/06 06:50:32;;;;;;;6.70;2.55;;;;;;;;;;4930593;28;20043;-78
2023/04/06 06:53:00;;;;;;;7.00;2.40;;;;;;;;;;4955612;28;20470;-77
2023/04/06 06:55:27;;;;;;;7.03;2.40;;;;;;;;;;4955162;28;20120;-77
2023/04/06 06:57:55;;;;;;;8.25;2.72;;;;;;;;;;4948322;28;20023;-77
2023/04/06 07:00:22;;;;;;;10.93;2.63;;;;;;;;;;4960231;28;20027;-78
2023/04/06 07:02:50;;;;;;;8.82;2.47;;;;;;;;;;4955419;28;20600;-77
2023/04/06 07:05:17;;;;;;;7.97;2.75;;;;;;;;;;4958031;28;20038;-79
2023/04/06 07:07:45;;;;;;;8.77;2.78;;;;;;;;;;4950399;28;20038;-77
2023/04/06 07:10:12;;;;;;;12.77;2.92;;;;;;;;;;4958555;28;20031;-76
2023/04/06 07:12:40;;;;;;;9.75;2.90;;;;;;;;;;4957254;28;20099;-76
2023/04/06 07:15:07;;;;;;;7.70;2.63;;;;;;;;;;4950681;28;21053;-77
2023/04/06 07:17:35;;;;;;;6.97;2.38;;;;;;;;;;4953225;28;20463;-78
2023/04/06 07:20:02;;;;;;;7.85;2.20;;;;;;;;;;4952299;28;20609;-77
2023/04/06 07:22:30;;;;;;;8.55;2.35;;;;;;;;;;4957287;28;20668;-77
2023/04/06 07:24:58;;;;;;;6.88;1.70;;;;;;;;;;4953141;28;20232;-77
2023/04/06 07:27:25;;;;;;;5.72;1.80;;;;;;;;;;4957556;28;20034;-80
2023/04/06 07:29:54;;;;;;;6.13;2.10;;;;;;;;;;4950745;28;20058;-78
2023/04/06 07:32:20;;;;;;;6.82;2.03;;;;;;;;;;4960856;28;20034;-77
2023/04/06 07:34:49;;;;;;;6.20;1.70;;;;;;;;;;4949986;28;20044;-77
2023/04/06 07:37:17;;;;;;;7.45;1.90;;;;;;;;;;4955801;28;20080;-78
2023/04/06 07:39:46;;;;;;;7.57;1.88;;;;;;;;;;4957586;28;20026;-78
2023/04/06 07:42:14;;;;;;;5.47;1.65;;;;;;;;;;4941256;28;20061;-77
2023/04/06 07:44:42;;;;;;;7.22;1.80;;;;;;;;;;4945170;28;20096;-79
2023/04/06 07:47:11;;;;;;;10.35;1.65;;;;;;;;;;4953684;28;20043;-79
2023/04/06 07:49:39;;;;;;;5.53;1.48;;;;;;;;;;4959415;28;20030;-79
2023/04/06 07:52:07;;;;;;;7.80;1.80;;;;;;;;;;4952124;28;21741;-78
2023/04/06 07:54:34;;;;;;;4.13;1.30;;;;;;;;;;4951341;28;20066;-79
2023/04/06 07:57:03;;;;;;;4.57;1.23;;;;;;;;;;4955441;28;20031;-79
2023/04/06 07:59:30;;;;;;;4.75;1.27;;;;;;;;;;4939508;28;20050;-79
2023/04/06 08:01:59;;;;;;;5.68;1.52;;;;;;;;;;4951899;28;20073;-79
2023/04/06 08:04:28;;;;;;;6.18;1.30;;;;;;;;;;4950131;28;20040;-79
2023/04/06 08:06:55;;;;;;;6.00;1.50;;;;;;;;;;4937507;28;20066;-78
2023/04/06 08:09:24;;;;;;;5.57;1.27;;;;;;;;;;4954447;28;20342;-79
2023/04/06 08:11:51;;;;;;;7.15;1.60;;;;;;;;;;4953492;28;20988;-78
2023/04/06 08:14:20;;;;;;;6.47;1.60;;;;;;;;;;4935938;28;20034;-78
2023/04/06 08:16:48;;;;;;;5.65;1.60;;;;;;;;;;4956847;28;20084;-78
2023/04/06 08:19:18;;;;;;;7.35;1.42;;;;;;;;;;4952330;28;20338;-79
2023/04/06 08:21:47;;;;;;;7.18;2.00;;;;;;;;;;4956368;28;20156;-78
2023/04/06 08:24:16;;;;;;;10.98;3.35;;;;;;;;;;4946738;28;20819;-79
2023/04/06 08:26:45;;;;;;;14.55;3.60;;;;;;;;;;4937151;28;20038;-79
2023/04/06 08:29:12;;;;;;;10.88;3.47;;;;;;;;;;4939147;28;20061;-78
2023/04/06 08:31:40;;;;;;;9.07;3.15;;;;;;;;;;4936118;28;20339;-79
2023/04/06 08:34:07;;;;;;;7.78;2.50;;;;;;;;;;4942033;28;21310;-78
2023/04/06 08:36:37;;;;;;;6.45;2.00;;;;;;;;;;4960234;28;20084;-79
2023/04/06 08:39:05;;;;;;;6.20;1.60;;;;;;;;;;4953727;28;20053;-79
2023/04/06 08:41:34;;;;;;;8.55;1.83;;;;;;;;;;4958667;28;20070;-79
2023/04/06 08:44:04;;;;;;;6.50;2.10;;;;;;;;;;4934974;28;20476;-78
2023/04/06 08:46:33;;;;;;;6.55;1.48;;;;;;;;;;4947813;28;20031;-79
2023/04/06 08:49:06;;;;;;;4.88;1.50;;;;;;;;;;4952818;28;20026;-79
2023/04/06 08:51:35;;;;;;;8.10;2.83;;;;;;;;;;4953815;28;20576;-78
2023/04/06 08:54:02;;;;;;;8.82;3.92;;;;;;;;;;4953590;28;20026;-73
2023/04/06 08:56:30;;;;;;;5.68;1.50;;;;;;;;;;4954576;28;20097;-74
2023/04/06 08:58:57;;;;;;;7.40;2.65;;;;;;;;;;4942418;28;20686;-73
2023/04/06 09:01:27;;;;;;;7.90;2.00;;;;;;;;;;4954787;28;20026;-73
2023/04/06 09:03:58;;;;;;;4.43;1.40;;;;;;;;;;4948765;28;20052;-73
2023/04/06 09:06:26;;;;;;;7.05;1.60;;;;;;;;;;4956782;28;20034;-73
2023/04/06 09:08:56;;;;;;;6.78;1.70;;;;;;;;;;4952902;28;20041;-73
2023/04/06 09:11:24;;;;;;;11.25;4.63;;;;;;;;;;4956547;28;20044;-73
2023/04/06 09:13:53;;;;;;;7.18;2.40;;;;;;;;;;4940909;28;20092;-73
2023/04/06 09:16:22;;;;;;;5.90;1.70;;;;;;;;;;4955702;28;20038;-73
2023/04/06 09:18:50;;;;;;;5.65;1.52;;;;;;;;;;4949018;28;20026;-73
2023/04/06 09:21:25;;;;;;;9.10;1.80;;;;;;;;;;4937059;28;20655;-73
2023/04/06 09:23:53;;;;;;;;;;;;;;;;;;4953172;28;20040;-73
2023/04/06 09:26:21;;;;;;;;;;;;;;;;;;4940481;28;20477;-73
2023/04/06 09:28:55;;;;;;;7.13;1.70;;;;;;;;;;4937597;28;20329;-73
2023/04/06 09:31:25;;;;;;;7.18;1.50;;;;;;;;;;4951326;28;20435;-73
2023/04/06 09:33:53;;;;;;;4.60;1.40;;;;;;;;;;4942097;28;20031;-73
2023/04/06 09:36:31;;;;;;;7.90;1.80;;;;;;;;;;4943042;28;20034;-73
2023/04/06 09:39:02;;;;;;;6.03;1.45;;;;;;;;;;4935285;28;20037;-73
2023/04/06 09:41:30;;;;;;;9.00;1.77;;;;;;;;;;4949486;28;20393;-73
2023/04/06 09:44:09;;;;;;;7.38;1.88;;;;;;;;;;4936213;28;20421;-73
2023/04/06 09:46:43;;;;;;;6.43;1.70;;;;;;;;;;4954145;28;20046;-73
2023/04/06 09:49:10;;;;;;;5.05;1.42;;;;;;;;;;4932506;28;20125;-72
2023/04/06 09:52:05;;;;;;;5.72;1.35;;;;;;;;;;4951551;28;20101;-72
2023/04/06 09:54:35;;;;;;;6.40;1.70;;;;;;;;;;4939919;28;20169;-73
2023/04/06 09:57:04;;;;;;;6.43;1.40;;;;;;;;;;4933870;28;20471;-72
2023/04/06 09:59:51;;;;;;;6.10;1.40;;;;;;;;;;4954608;28;20084;-72
2023/04/06 10:02:45;;;;;;;5.10;1.40;;;;;;;;;;4939433;28;20397;-72
2023/04/06 10:05:31;;;;;;;4.18;1.27;;;;;;;;;;4955143;28;20051;-72
2023/04/06 10:08:02;;;;;;;5.75;1.33;;;;;;;;;;4950811;28;20046;-72
2023/04/06 10:10:30;;;;;;;5.57;1.45;;;;;;;;;;4924467;28;20077;-72
2023/04/06 10:12:58;;;;;;;4.38;1.25;;;;;;;;;;4923718;28;20644;-72
2023/04/06 10:15:27;;;;;;;7.65;1.48;;;;;;;;;;4949828;28;20038;-72
2023/04/06 10:17:55;;;;;;;5.72;1.42;;;;;;;;;;4936353;28;20401;-72
2023/04/06 10:20:27;;;;;;;4.45;1.23;;;;;;;;;;4940857;28;20162;-72
2023/04/06 10:23:09;;;;;;;9.10;1.80;;;;;;;;;;4951604;28;20034;-72
2023/04/06 10:25:37;;;;;;;6.10;1.67;;;;;;;;;;4956393;28;20361;-72
2023/04/06 10:28:08;;;;;;;8.45;1.70;;;;;;;;;;4953539;28;20023;-72
2023/04/06 10:30:52;;;;;;;7.72;1.70;;;;;;;;;;4957546;28;20149;-72
2023/04/06 10:33:20;;;;;;;5.60;1.60;;;;;;;;;;4942895;28;20452;-72
2023/04/06 10:35:48;;;;;;;6.28;1.70;;;;;;;;;;4943435;28;20072;-72
2023/04/06 10:38:19;;;;;;;4.90;1.55;;;;;;;;;;4947665;28;20034;-73
2023/04/06 10:40:48;;;;;;;5.15;1.40;;;;;;;;;;4954401;28;20097;-72
2023/04/06 10:43:23;;;;;;;3.97;1.42;;;;;;;;;;4958682;28;20044;-72
2023/04/06 10:45:57;;;;;;;6.45;1.67;;;;;;;;;;4940457;28;20366;-72
2023/04/06 10:48:26;;;;;;;5.00;1.83;;;;;;;;;;4956770;28;20030;-72
2023/04/06 10:50:54;;;;;;;7.10;1.90;;;;;;;;;;4953263;28;20072;-72
2023/04/06 10:53:36;;;;;;;5.70;1.90;;;;;;;;;;4941147;28;20100;-73
2023/04/06 10:56:04;;;;;;;6.25;1.80;;;;;;;;;;4940482;28;20397;-72
2023/04/06 10:58:32;;;;;;;7.63;1.90;;;;;;;;;;4938607;28;20038;-73
2023/04/06 11:01:01;;;;;;;5.70;1.63;;;;;;;;;;4952304;28;20043;-72
2023/04/06 11:03:29;;;;;;;5.78;1.65;;;;;;;;;;4958134;28;20035;-74
2023/04/06 11:05:56;;;;;;;6.78;1.70;;;;;;;;;;4948349;28;20045;-72
2023/04/06 11:08:38;;;;;;;4.82;1.50;;;;;;;;;;4956544;28;20026;-72
2023/04/06 11:11:09;;;;;;;4.60;1.40;;;;;;;;;;4951291;28;20130;-72
2023/04/06 11:13:43;;;;;;;6.45;1.55;;;;;;;;;;4920102;28;20047;-73
2023/04/06 11:16:24;;;;;;;6.43;1.40;;;;;;;;;;4914802;28;20533;-73
2023/04/06 11:19:12;;;;;;;4.20;1.30;;;;;;;;;;4909793;28;20226;-73
2023/04/06 11:21:43;;;;;;;6.03;1.30;;;;;;;;;;4917674;28;20035;-74
2023/04/06 11:24:23;;;;;;;4.57;1.40;;;;;;;;;;4920828;28;20031;-72
2023/04/06 11:27:04;;;;;;;5.22;1.50;;;;;;;;;;4911518;28;20107;-73
2023/04/06 11:29:31;;;;;;;8.23;1.75;;;;;;;;;;4918307;28;20256;-75
2023/04/06 11:32:03;;;;;;;3.60;1.25;;;;;;;;;;4915318;28;20047;-74
2023/04/06 11:34:31;;;;;;;5.63;1.42;;;;;;;;;;4908159;28;20043;-74
2023/04/06 11:37:02;;;;;;;5.05;1.33;;;;;;;;;;4893755;28;20043;-74
2023/04/06 11:39:30;;;;;;;4.00;1.40;;;;;;;;;;4897515;28;20028;-74
2023/04/06 11:42:02;;;;;;;4.20;1.38;;;;;;;;;;4903817;28;20055;-73
2023/04/06 11:44:45;;;;;;;3.75;1.23;;;;;;;;;;4919356;28;20031;-74
2023/04/06 11:47:13;;;;;;;6.07;1.20;;;;;;;;;;4914081;28;20502;-75
2023/04/06 11:49:42;;;;;;;3.30;1.20;;;;;;;;;;4915526;28;20081;-74
2023/04/06 11:52:25;;;;;;;4.57;1.40;;;;;;;;;;4902316;28;20043;-73
2023/04/06 11:54:53;;;;;;;5.10;1.40;;;;;;;;;;4904350;28;20222;-73
2023/04/06 11:57:25;;;;;;;4.40;1.35;;;;;;;;;;4931174;28;20038;-74
2023/04/06 11:59:52;;;;;;;7.20;1.30;;;;;;;;;;4924874;28;20034;-73
2023/04/06 12:02:21;;;;;;;4.68;1.27;;;;;;;;;;4943967;28;20049;-73
2023/04/06 12:04:48;;;;;;;6.28;1.30;;;;;;;;;;4938029;28;20234;-72
2023/04/06 12:07:17;;;;;;;5.90;1.30;;;;;;;;;;4954115;28;20067;-73
2023/04/06 12:09:46;;;;;;;5.45;1.45;;;;;;;;;;4954162;28;20041;-73
2023/04/06 12:12:13;;;;;;;5.70;1.40;;;;;;;;;;4955586;28;20034;-73
2023/04/06 12:14:41;;;;;;;7.00;1.42;;;;;;;;;;4954096;28;20034;-73
2023/04/06 12:17:08;;;;;;;5.53;1.60;;;;;;;;;;4949648;28;20034;-72
2023/04/06 12:19:37;;;;;;;4.80;1.55;;;;;;;;;;4957384;28;20026;-73
2023/04/06 12:22:05;;;;;;;6.95;1.67;;;;;;;;;;4954720;28;20041;-73
2023/04/06 12:24:32;;;;;;;4.93;1.40;;;;;;;;;;4937175;28;20132;-73
2023/04/06 12:27:01;;;;;;;4.43;1.23;;;;;;;;;;4955780;28;20039;-73
2023/04/06 12:29:29;;;;;;;7.10;1.58;;;;;;;;;;4955998;28;20031;-73
2023/04/06 12:31:56;;;;;;;3.60;1.10;;;;;;;;;;4952907;28;20042;-73
2023/04/06 12:34:23;;;;;;;5.75;1.50;;;;;;;;;;4933979;28;20031;-73
2023/04/06 12:36:49;;;;;;;5.45;1.58;;;;;;;;;;4949714;28;20138;-73
2023/04/06 12:39:36;;;;;;;4.53;1.42;;;;;;;;;;4955638;28;20027;-72
2023/04/06 12:42:05;;;;;;;4.25;1.60;;;;;;;;;;4952438;28;20179;-73
2023/04/06 12:44:33;;;;;;;6.82;1.70;;;;;;;;;;4952474;28;20121;-73
2023/04/06 12:47:02;;;;;;;4.70;1.58;;;;;;;;;;4953907;28;20599;-73
2023/04/06 12:49:30;;;;;;;7.25;1.73;;;;;;;;;;4938580;28;20347;-74
2023/04/06 12:51:59;;;;;;;4.60;1.40;;;;;;;;;;4953121;28;20045;-73
2023/04/06 12:54:26;;;;;;;4.85;1.27;;;;;;;;;;4939078;28;20129;-73
2023/04/06 12:56:55;;;;;;;5.90;1.40;;;;;;;;;;4949114;28;20146;-73
2023/04/06 12:59:25;;;;;;;4.80;1.40;;;;;;;;;;4955995;28;20042;-73
2023/04/06 13:01:54;;;;;;;7.95;2.15;;;;;;;;;;4954141;28;20046;-73
2023/04/06 13:04:23;;;;;;;7.00;1.40;;;;;;;;;;4952719;28;20038;-73
2023/04/06 13:06:50;;;;;;;4.85;1.60;;;;;;;;;;4936686;28;20041;-73
2023/04/06 13:09:17;;;;;;;14.18;3.28;;;;;;;;;;4939695;28;20057;-73
2023/04/06 13:11:46;;;;;;;8.32;1.80;;;;;;;;;;4939468;28;20505;-74
2023/04/06 13:14:15;;;;;;;6.35;1.50;;;;;;;;;;4951830;28;20431;-73
2023/04/06 13:16:43;;;;;;;8.13;2.20;;;;;;;;;;4937140;28;20326;-73
2023/04/06 13:19:12;;;;;;;7.57;1.80;;;;;;;;;;4950960;28;20031;-72
2023/04/06 13:21:39;;;;;;;4.78;1.40;;;;;;;;;;4953787;28;20476;-74
2023/04/06 13:24:07;;;;;;;9.23;2.22;;;;;;;;;;4946924;28;20800;-74
2023/04/06 13:26:35;;;;;;;5.85;1.77;;;;;;;;;;4950044;28;20038;-73
2023/04/06 13:29:03;;;;;;;7.05;1.60;;;;;;;;;;4949464;28;20531;-73
2023/04/06 13:31:30;;;;;;;8.23;2.17;;;;;;;;;;4955389;28;20065;-73
2023/04/06 13:33:58;;;;;;;5.05;1.42;;;;;;;;;;4935739;28;20484;-73
2023/04/06 13:36:27;;;;;;;5.22;1.70;;;;;;;;;;4926021;28;20038;-73
2023/04/06 13:38:55;;;;;;;6.22;1.60;;;;;;;;;;4933930;28;20551;-73
2023/04/06 13:41:22;;;;;;;4.28;1.30;;;;;;;;;;4955305;28;20046;-74
2023/04/06 13:43:49;;;;;;;6.25;1.58;;;;;;;;;;4936123;28;20046;-73
2023/04/06 13:46:17;;;;;;;6.50;1.45;;;;;;;;;;4953508;28;20555;-72
2023/04/06 13:48:44;;;;;;;6.05;1.70;;;;;;;;;;4958054;28;20034;-72
2023/04/06 13:51:15;;;;;;;4.00;1.20;;;;;;;;;;4950442;28;20387;-72
2023/04/06 13:53:42;;;;;;;5.95;1.30;;;;;;;;;;4935159;28;20051;-73
2023/04/06 13:56:10;;;;;;;5.35;1.55;;;;;;;;;;4948348;28;20333;-73
2023/04/06 13:58:37;;;;;;;8.38;1.90;;;;;;;;;;4953337;28;20457;-73
2023/04/06 14:01:05;;;;;;;5.45;1.45;;;;;;;;;;4946246;28;20061;-73
2023/04/06 14:03:33;;;;;;;6.55;1.58;;;;;;;;;;4948079;28;20031;-72
2023/04/06 14:06:01;;;;;;;5.70;1.48;;;;;;;;;;4946867;28;20484;-73
2023/04/06 14:08:27;;;;;;;5.97;1.77;;;;;;;;;;4952561;28;20030;-72
2023/04/06 14:10:55;;;;;;;7.57;1.98;;;;;;;;;;4950145;28;20038;-72
2023/04/06 14:13:22;;;;;;;7.53;1.83;;;;;;;;;;4937365;28;20042;-73
2023/04/06 14:15:53;;;;;;;5.82;1.70;;;;;;;;;;4942817;28;20035;-73
2023/04/06 14:18:22;;;;;;;7.30;1.67;;;;;;;;;;4938278;28;20029;-73
2023/04/06 14:20:54;;;;;;;5.07;1.30;;;;;;;;;;4950374;28;20383;-72
2023/04/06 14:23:22;;;;;;;6.22;1.50;;;;;;;;;;4951499;28;20033;-73
2023/04/06 14:25:50;;;;;;;8.27;1.70;;;;;;;;;;4949663;28;20030;-72
2023/04/06 14:28:17;;;;;;;5.75;1.30;;;;;;;;;;4951637;28;20018;-72
2023/04/06 14:30:45;;;;;;;7.05;1.75;;;;;;;;;;4935377;28;20054;-72
2023/04/06 14:33:12;;;;;;;5.32;1.30;;;;;;;;;;4948654;28;20353;-72
2023/04/06 14:35:40;;;;;;;7.38;1.30;;;;;;;;;;4954846;28;20503;-72
2023/04/06 14:38:07;;;;;;;5.53;1.63;;;;;;;;;;4948110;28;21441;-72
2023/04/06 14:40:36;;;;;;;6.65;1.50;;;;;;;;;;4951747;28;20030;-72
2023/04/06 14:43:04;;;;;;;7.30;1.58;;;;;;;;;;4934520;28;20045;-72
2023/04/06 14:45:34;;;;;;;5.20;1.30;;;;;;;;;;4953850;28;20063;-72
2023/04/06 14:48:01;;;;;;;4.63;1.40;;;;;;;;;;4952706;28;20610;-71
2023/04/06 14:50:29;;;;;;;4.88;1.27;;;;;;;;;;4947947;28;20125;-72
2023/04/06 14:52:57;;;;;;;6.70;1.88;;;;;;;;;;4945794;28;20027;-73